createdAt,value
2019-02-18T00:00:34.156Z,100.93
2019-02-18T00:03:02.631Z,82.93
2019-02-18T00:05:31.112Z,82.77
2019-02-18T00:07:59.626Z,81.63
2019-02-18T00:10:28.081Z,78.40
2019-02-18T00:12:56.563Z,95.23
2019-02-18T00:15:25.067Z,89.00
2019-02-18T00:17:53.520Z,88.70
2019-02-18T00:20:21.992Z,102.43
2019-02-18T00:22:50.497Z,83.17
2019-02-18T00:25:18.964Z,97.90
2019-02-18T00:27:47.434Z,103.10
2019-02-18T00:30:15.960Z,85.97
2019-02-18T00:32:44.415Z,102.13
2019-02-18T00:35:12.893Z,104.93
2019-02-18T00:37:41.418Z,91.03
2019-02-18T00:40:10.476Z,92.90
2019-02-18T00:42:38.934Z,95.07
2019-02-18T00:45:10.615Z,85.47
2019-02-18T00:47:39.185Z,78.23
2019-02-18T00:50:09.688Z,99.77
2019-02-18T00:52:38.218Z,81.80
2019-02-18T00:55:07.817Z,90.23
2019-02-18T00:57:36.411Z,88.77
2019-02-18T01:00:13.860Z,95.27
2019-02-18T01:02:42.303Z,80.87
2019-02-18T01:05:11.199Z,89.00
2019-02-18T01:07:39.711Z,75.60
2019-02-18T01:10:11.127Z,46.63
2019-02-18T01:12:39.581Z,53.90
2019-02-18T01:15:14.003Z,48.60
2019-02-18T01:17:42.547Z,49.63
2019-02-18T01:20:12.948Z,48.43
2019-02-18T01:22:41.429Z,41.60
2019-02-18T01:25:12.270Z,50.93
2019-02-18T01:27:40.732Z,40.50
2019-02-18T01:30:12.424Z,46.30
2019-02-18T01:32:40.944Z,35.07
2019-02-18T01:35:09.473Z,42.30
2019-02-18T01:37:45.175Z,37.60
2019-02-18T01:40:13.822Z,46.00
2019-02-18T01:42:42.406Z,44.77
2019-02-18T01:45:13.210Z,41.77
2019-02-18T01:47:41.668Z,46.13
2019-02-18T01:50:12.424Z,44.07
2019-02-18T01:52:40.894Z,57.10
2019-02-18T01:55:10.895Z,48.17
2019-02-18T01:57:39.391Z,65.17
2019-02-18T02:00:15.646Z,83.73
2019-02-18T02:02:44.398Z,72.97
2019-02-18T02:05:14.616Z,94.07
2019-02-18T02:07:56.290Z,75.40
2019-02-18T02:10:21.850Z,95.63
2019-02-18T02:12:50.321Z,92.23
2019-02-18T02:15:22.116Z,102.27
2019-02-18T02:17:50.601Z,101.10
2019-02-18T02:20:19.123Z,86.87
2019-02-18T02:22:47.618Z,89.80
2019-02-18T02:25:16.097Z,100.40
2019-02-18T02:27:44.557Z,78.50
2019-02-18T02:30:13.127Z,118.37
2019-02-18T02:32:41.597Z,87.23
2019-02-18T02:35:10.059Z,99.30
2019-02-18T02:37:38.561Z,94.87
2019-02-18T02:40:09.474Z,61.37
2019-02-18T02:42:37.973Z,39.60
2019-02-18T02:45:07.875Z,56.83
2019-02-18T02:47:36.422Z,68.53
2019-02-18T02:50:06.613Z,76.83
2019-02-18T02:52:36.254Z,61.77
2019-02-18T02:55:06.067Z,77.23
2019-02-18T02:57:34.523Z,83.53
2019-02-18T03:00:03.193Z,88.20
2019-02-18T03:02:31.661Z,93.17
2019-02-18T03:05:00.374Z,95.30
2019-02-18T03:07:29.031Z,98.93
2019-02-18T03:09:57.509Z,90.27
2019-02-18T03:12:25.976Z,91.50
2019-02-18T03:14:54.461Z,96.60
2019-02-18T03:17:22.936Z,88.63
2019-02-18T03:19:51.405Z,89.90
2019-02-18T03:22:19.916Z,104.00
2019-02-18T03:25:17.196Z,110.77
2019-02-18T03:27:45.850Z,84.90
2019-02-18T03:30:42.096Z,90.20
2019-02-18T03:33:14.094Z,89.80
2019-02-18T03:35:42.552Z,84.33
2019-02-18T03:38:11.045Z,97.83
2019-02-18T03:40:39.567Z,77.93
2019-02-18T03:43:08.027Z,83.87
2019-02-18T03:45:36.562Z,93.10
2019-02-18T03:48:05.040Z,97.77
2019-02-18T03:50:33.509Z,99.70
2019-02-18T03:53:01.974Z,83.47
2019-02-18T03:55:32.284Z,84.87
2019-02-18T03:58:00.747Z,85.90
2019-02-18T04:00:29.218Z,94.17
2019-02-18T04:02:57.709Z,91.70
2019-02-18T04:05:26.168Z,106.63
2019-02-18T04:07:54.633Z,90.87
2019-02-18T04:10:23.136Z,91.77
2019-02-18T04:12:51.585Z,92.67
2019-02-18T04:15:20.045Z,100.83
2019-02-18T04:17:48.584Z,84.93
2019-02-18T04:20:17.047Z,83.07
2019-02-18T04:22:45.516Z,89.00
2019-02-18T04:25:14.023Z,90.40
2019-02-18T04:27:42.491Z,107.13
2019-02-18T04:30:13.655Z,86.43
2019-02-18T04:32:41.753Z,84.90
2019-02-18T04:35:13.224Z,89.73
2019-02-18T04:37:41.745Z,87.13
2019-02-18T04:40:10.283Z,97.17
2019-02-18T04:42:38.761Z,102.80
2019-02-18T04:45:09.669Z,102.70
2019-02-18T04:47:38.167Z,102.57
2019-02-18T04:50:08.175Z,93.73
2019-02-18T04:52:36.644Z,84.53
2019-02-18T04:55:09.964Z,82.67
2019-02-18T04:57:39.584Z,105.37
2019-02-18T05:00:10.060Z,99.17
2019-02-18T05:02:38.573Z,83.07
2019-02-18T05:05:09.354Z,107.73
2019-02-18T05:07:37.849Z,103.07
2019-02-18T05:10:09.152Z,94.73
2019-02-18T05:12:37.618Z,92.63
2019-02-18T05:15:07.830Z,93.53
2019-02-18T05:17:36.428Z,96.87
2019-02-18T05:20:07.116Z,88.67
2019-02-18T05:22:35.598Z,86.63
2019-02-18T05:25:06.396Z,82.83
2019-02-18T05:27:34.875Z,95.80
2019-02-18T05:30:03.969Z,87.73
2019-02-18T05:32:32.478Z,91.77
2019-02-18T05:35:01.005Z,87.57
2019-02-18T05:37:29.683Z,73.20
2019-02-18T05:39:58.204Z,75.93
2019-02-18T05:42:26.681Z,83.37
2019-02-18T05:44:55.155Z,84.77
2019-02-18T05:47:23.664Z,84.97
2019-02-18T05:49:52.197Z,91.13
2019-02-18T05:52:20.650Z,74.87
2019-02-18T05:54:50.296Z,85.27
2019-02-18T05:57:18.781Z,77.50
2019-02-18T05:59:47.579Z,76.77
2019-02-18T06:02:17.050Z,76.33
2019-02-18T06:04:45.503Z,73.80
2019-02-18T06:07:13.970Z,88.30
2019-02-18T06:09:42.484Z,78.87
2019-02-18T06:12:10.946Z,78.10
2019-02-18T06:14:39.435Z,80.43
2019-02-18T06:17:07.986Z,87.63
2019-02-18T06:19:36.447Z,73.50
2019-02-18T06:22:04.916Z,86.97
2019-02-18T06:24:33.440Z,87.97
2019-02-18T06:27:01.916Z,88.97
2019-02-18T06:29:30.465Z,100.07
2019-02-18T06:31:59.079Z,83.80
2019-02-18T06:34:27.588Z,101.23
2019-02-18T06:36:56.075Z,104.53
2019-02-18T06:39:24.566Z,89.83
2019-02-18T06:41:53.034Z,80.43
2019-02-18T06:44:23.144Z,83.43
2019-02-18T06:46:53.276Z,78.43
2019-02-18T06:49:21.769Z,85.63
2019-02-18T06:51:50.237Z,81.20
2019-02-18T06:54:18.746Z,91.23
2019-02-18T06:56:48.852Z,76.87
2019-02-18T06:59:21.881Z,103.50
2019-02-18T07:01:53.863Z,80.93
2019-02-18T07:04:26.796Z,80.40
2019-02-18T07:06:56.907Z,86.23
2019-02-18T07:09:33.097Z,91.20
2019-02-18T07:12:03.210Z,93.40
2019-02-18T07:14:31.657Z,99.77
2019-02-18T07:17:00.168Z,94.47
2019-02-18T07:19:28.628Z,93.37
2019-02-18T07:21:57.116Z,116.37
2019-02-18T07:24:25.611Z,87.40
2019-02-18T07:26:54.075Z,105.47
2019-02-18T07:29:22.544Z,95.67
2019-02-18T07:31:51.052Z,102.57
2019-02-18T07:34:19.519Z,102.20
2019-02-18T07:36:47.985Z,127.13
2019-02-18T07:39:16.481Z,112.87
2019-02-18T07:41:44.947Z,93.47
2019-02-18T07:44:13.409Z,94.13
2019-02-18T07:46:41.901Z,82.13
2019-02-18T07:49:10.365Z,73.47
2019-02-18T07:51:38.828Z,76.67
2019-02-18T07:54:07.336Z,81.67
2019-02-18T07:56:35.817Z,72.70
2019-02-18T07:59:04.283Z,69.40
2019-02-18T08:01:32.786Z,73.13
2019-02-18T08:04:02.347Z,72.53
2019-02-18T08:06:30.804Z,73.57
2019-02-18T08:08:59.297Z,80.10
2019-02-18T08:11:27.767Z,66.57
2019-02-18T08:13:56.235Z,80.07
2019-02-18T08:16:24.739Z,68.20
2019-02-18T08:18:53.212Z,80.73
2019-02-18T08:21:21.689Z,77.47
2019-02-18T08:23:59.369Z,68.67
2019-02-18T08:26:20.370Z,68.57
2019-02-18T08:28:48.913Z,73.43
2019-02-18T08:31:17.407Z,68.00
2019-02-18T08:33:45.879Z,67.63
2019-02-18T08:36:14.378Z,79.87
2019-02-18T08:38:42.861Z,67.77
2019-02-18T08:41:11.402Z,71.97
2019-02-18T08:43:39.891Z,59.33
2019-02-18T08:46:08.397Z,69.90
2019-02-18T08:48:36.858Z,64.50
2019-02-18T08:51:05.323Z,68.47
2019-02-18T08:53:33.839Z,72.10
2019-02-18T08:56:02.312Z,68.97
2019-02-18T08:58:30.792Z,68.67
2019-02-18T09:01:02.515Z,70.43
2019-02-18T09:03:29.465Z,71.73
2019-02-18T09:05:59.594Z,65.90
2019-02-18T09:08:28.109Z,70.83
2019-02-18T09:10:56.562Z,66.93
2019-02-18T09:13:25.023Z,70.83
2019-02-18T09:16:00.049Z,69.67
2019-02-18T09:18:23.716Z,63.43
2019-02-18T09:20:52.188Z,69.87
2019-02-18T09:23:22.413Z,58.70
2019-02-18T09:25:51.953Z,64.57
2019-02-18T09:28:20.407Z,61.33
2019-02-18T09:30:49.974Z,62.43
2019-02-18T09:33:20.876Z,73.70
2019-02-18T09:35:49.317Z,63.97
2019-02-18T09:38:25.062Z,58.00
2019-02-18T09:40:51.394Z,56.17
2019-02-18T09:43:18.198Z,53.73
2019-02-18T09:45:46.678Z,64.10
2019-02-18T09:48:15.155Z,47.60
2019-02-18T09:50:43.647Z,58.20
2019-02-18T09:53:12.117Z,63.47
2019-02-18T09:55:40.583Z,66.20
2019-02-18T09:58:09.074Z,58.70
2019-02-18T10:00:37.554Z,56.67
2019-02-18T10:03:06.014Z,55.60
2019-02-18T10:05:34.521Z,55.70
2019-02-18T10:08:03.122Z,52.10
2019-02-18T10:10:31.570Z,51.40
2019-02-18T10:13:00.090Z,57.43
2019-02-18T10:15:28.547Z,55.83
2019-02-18T10:17:57.019Z,58.67
2019-02-18T10:20:25.540Z,62.67
2019-02-18T10:22:54.000Z,55.63
2019-02-18T10:25:22.491Z,53.80
2019-02-18T10:27:50.958Z,54.60
2019-02-18T10:30:20.738Z,49.43
2019-02-18T10:32:49.353Z,48.73
2019-02-18T10:35:17.862Z,54.70
2019-02-18T10:37:54.761Z,51.57
2019-02-18T10:40:16.509Z,50.67
2019-02-18T10:42:45.008Z,47.90
2019-02-18T10:45:14.133Z,53.03
2019-02-18T10:47:42.603Z,53.27
2019-02-18T10:50:12.144Z,48.93
2019-02-18T10:52:40.678Z,56.17
2019-02-18T10:55:10.499Z,46.50
2019-02-18T10:57:39.279Z,47.70
2019-02-18T11:00:15.777Z,51.73
2019-02-18T11:02:44.955Z,45.83
2019-02-18T11:05:13.484Z,48.10
2019-02-18T11:07:42.902Z,46.73
2019-02-18T11:10:15.965Z,49.63
2019-02-18T11:12:44.428Z,42.57
2019-02-18T11:15:13.832Z,46.27
2019-02-18T11:17:42.703Z,45.83
2019-02-18T11:20:13.379Z,49.13
2019-02-18T11:22:41.834Z,43.13
2019-02-18T11:25:14.459Z,45.23
2019-02-18T11:27:42.914Z,49.33
2019-02-18T11:30:13.986Z,43.40
2019-02-18T11:32:43.118Z,44.47
2019-02-18T11:35:11.833Z,45.37
2019-02-18T11:37:40.362Z,49.63
2019-02-18T11:40:12.091Z,49.43
2019-02-18T11:42:40.559Z,43.63
2019-02-18T11:45:11.960Z,37.77
2019-02-18T11:47:40.464Z,48.30
2019-02-18T11:50:11.174Z,44.60
2019-02-18T11:52:39.639Z,49.73
2019-02-18T11:55:10.596Z,44.97
2019-02-18T11:57:39.065Z,42.00
2019-02-18T12:00:10.672Z,45.23
2019-02-18T12:02:39.165Z,61.17
2019-02-18T12:05:12.034Z,49.00
2019-02-18T12:07:40.574Z,51.73
2019-02-18T12:10:13.255Z,50.50
2019-02-18T12:12:42.441Z,44.70
2019-02-18T12:15:15.834Z,46.43
2019-02-18T12:17:44.306Z,41.30
2019-02-18T12:20:14.768Z,44.60
2019-02-18T12:22:43.283Z,46.73
2019-02-18T12:25:12.867Z,46.47
2019-02-18T12:27:41.739Z,45.50
2019-02-18T12:30:15.818Z,61.33
2019-02-18T12:32:44.427Z,48.13
2019-02-18T12:35:12.887Z,52.60
2019-02-18T12:37:41.461Z,49.17
2019-02-18T12:40:13.481Z,46.10
2019-02-18T12:42:42.592Z,46.40
2019-02-18T12:45:12.346Z,47.60
2019-02-18T12:47:40.960Z,42.47
2019-02-18T12:50:10.861Z,56.43
2019-02-18T12:52:39.430Z,48.57
2019-02-18T12:55:09.418Z,48.10
2019-02-18T12:57:38.166Z,53.10
2019-02-18T13:00:13.944Z,48.47
2019-02-18T13:02:44.798Z,48.40
2019-02-18T13:05:13.750Z,49.53
2019-02-18T13:07:42.312Z,45.70
2019-02-18T13:10:11.168Z,49.10
2019-02-18T13:12:40.006Z,43.97
2019-02-18T13:15:17.756Z,47.17
2019-02-18T13:17:46.226Z,45.60
2019-02-18T13:20:14.697Z,56.17
2019-02-18T13:22:43.197Z,42.83
2019-02-18T13:25:11.757Z,53.40
2019-02-18T13:27:40.294Z,40.17
2019-02-18T13:30:17.160Z,53.90
2019-02-18T13:32:45.694Z,47.47
2019-02-18T13:35:14.167Z,46.70
2019-02-18T13:37:42.674Z,51.77
2019-02-18T13:40:13.095Z,46.10
2019-02-18T13:42:42.043Z,46.70
2019-02-18T13:45:10.623Z,47.63
2019-02-18T13:47:39.094Z,44.93
2019-02-18T13:50:12.309Z,45.00
2019-02-18T13:52:40.833Z,43.90
2019-02-18T13:55:11.344Z,50.23
2019-02-18T13:57:40.195Z,49.80
2019-02-18T14:00:15.548Z,64.03
2019-02-18T14:02:44.012Z,46.30
2019-02-18T14:05:12.561Z,51.80
2019-02-18T14:07:41.051Z,52.63
2019-02-18T14:10:09.592Z,44.13
2019-02-18T14:12:38.337Z,44.73
2019-02-18T14:15:11.511Z,41.77
2019-02-18T14:17:40.302Z,45.77
2019-02-18T14:20:15.887Z,49.73
2019-02-18T14:22:44.356Z,42.97
2019-02-18T14:25:13.751Z,49.20
2019-02-18T14:27:42.328Z,45.50
2019-02-18T14:30:16.210Z,45.73
2019-02-18T14:32:44.749Z,46.07
2019-02-18T14:35:13.432Z,49.80
2019-02-18T14:37:41.967Z,41.03
2019-02-18T14:40:12.260Z,46.60
2019-02-18T14:42:40.830Z,46.53
2019-02-18T14:45:09.873Z,41.43
2019-02-18T14:47:38.422Z,43.63
2019-02-18T14:50:09.270Z,41.90
2019-02-18T14:52:37.744Z,45.87
2019-02-18T14:55:08.341Z,35.73
2019-02-18T14:57:36.909Z,34.60
2019-02-18T15:00:22.243Z,47.40
2019-02-18T15:02:54.459Z,37.80
2019-02-18T15:05:24.211Z,37.90
2019-02-18T15:07:52.673Z,35.10
2019-02-18T15:10:21.209Z,46.07
2019-02-18T15:12:49.668Z,33.77
2019-02-18T15:15:18.133Z,34.50
2019-02-18T15:17:46.676Z,32.77
2019-02-18T15:20:16.299Z,37.40
2019-02-18T15:22:44.766Z,36.33
2019-02-18T15:25:13.294Z,37.50
2019-02-18T15:27:41.851Z,34.07
2019-02-18T15:30:14.069Z,33.87
2019-02-18T15:32:42.573Z,41.70
2019-02-18T15:35:11.121Z,37.43
2019-02-18T15:37:39.670Z,38.67
2019-02-18T15:40:10.597Z,33.97
2019-02-18T15:42:42.343Z,32.93
2019-02-18T15:45:09.931Z,31.07
2019-02-18T15:47:38.525Z,33.93
2019-02-18T15:50:09.912Z,33.77
2019-02-18T15:52:38.371Z,36.50
2019-02-18T15:55:07.822Z,40.27
2019-02-18T15:57:36.374Z,31.23
2019-02-18T16:00:15.966Z,35.80
2019-02-18T16:02:44.508Z,35.67
2019-02-18T16:05:12.984Z,31.07
2019-02-18T16:07:41.479Z,30.60
2019-02-18T16:10:10.016Z,34.20
2019-02-18T16:12:38.485Z,34.13
2019-02-18T16:15:08.538Z,28.97
2019-02-18T16:17:37.024Z,29.47
2019-02-18T16:20:09.184Z,31.90
2019-02-18T16:22:38.667Z,28.80
2019-02-18T16:25:12.970Z,28.63
2019-02-18T16:27:41.447Z,27.47
2019-02-18T16:30:12.641Z,46.43
2019-02-18T16:32:41.379Z,30.87
2019-02-18T16:35:10.581Z,33.40
2019-02-18T16:37:39.367Z,38.40
2019-02-18T16:40:11.356Z,33.97
2019-02-18T16:42:39.829Z,37.63
2019-02-18T16:45:11.380Z,38.60
2019-02-18T16:47:39.846Z,32.50
2019-02-18T16:50:08.825Z,33.37
2019-02-18T16:52:37.341Z,28.83
2019-02-18T16:55:09.311Z,37.93
2019-02-18T16:57:38.268Z,40.00
2019-02-18T17:00:12.080Z,37.50
2019-02-18T17:02:40.553Z,34.37
2019-02-18T17:05:09.010Z,34.40
2019-02-18T17:07:37.503Z,34.60
2019-02-18T17:10:07.714Z,33.80
2019-02-18T17:12:36.173Z,41.53
2019-02-18T17:15:07.390Z,47.20
2019-02-18T17:17:35.871Z,55.90
2019-02-18T17:20:05.673Z,49.63
2019-02-18T17:22:34.254Z,38.27
2019-02-18T17:25:03.018Z,41.53
2019-02-18T17:27:31.494Z,45.20
2019-02-18T17:30:00.375Z,50.67
2019-02-18T17:32:28.819Z,51.43
2019-02-18T17:34:57.280Z,50.10
2019-02-18T17:37:25.774Z,43.63
2019-02-18T17:39:54.238Z,45.10
2019-02-18T17:42:22.877Z,42.47
2019-02-18T17:44:51.367Z,42.07
2019-02-18T17:47:20.093Z,35.33
2019-02-18T17:49:48.555Z,47.83
2019-02-18T17:52:17.061Z,39.13
2019-02-18T17:54:45.525Z,40.20
2019-02-18T17:57:13.991Z,35.47
2019-02-18T17:59:42.515Z,34.07
2019-02-18T18:02:11.156Z,36.87
2019-02-18T18:04:40.753Z,35.10
2019-02-18T18:07:09.205Z,31.37
2019-02-18T18:09:37.677Z,31.70
2019-02-18T18:12:06.162Z,35.73
2019-02-18T18:14:34.665Z,42.20
2019-02-18T18:17:03.134Z,46.77
2019-02-18T18:19:31.906Z,34.03
2019-02-18T18:22:00.395Z,32.93
2019-02-18T18:24:28.863Z,37.53
2019-02-18T18:26:57.620Z,33.03
2019-02-18T18:29:26.122Z,41.90
2019-02-18T18:31:54.569Z,38.50
2019-02-18T18:34:23.501Z,41.60
2019-02-18T18:36:51.987Z,45.70
2019-02-18T18:39:20.455Z,45.97
2019-02-18T18:41:48.933Z,47.80
2019-02-18T18:44:17.428Z,64.10
2019-02-18T18:46:45.907Z,81.40
2019-02-18T18:49:14.356Z,52.10
2019-02-18T18:51:42.860Z,51.20
2019-02-18T18:54:11.317Z,47.77
2019-02-18T18:56:39.774Z,46.40
2019-02-18T18:59:08.281Z,45.10
2019-02-18T19:01:36.751Z,46.47
2019-02-18T19:04:05.203Z,50.77
2019-02-18T19:06:34.917Z,38.77
2019-02-18T19:09:04.515Z,43.23
2019-02-18T19:11:32.982Z,42.30
2019-02-18T19:14:01.483Z,50.13
2019-02-18T19:16:29.940Z,42.20
2019-02-18T19:18:58.397Z,53.30
2019-02-18T19:21:26.903Z,47.80
2019-02-18T19:23:55.363Z,50.37
2019-02-18T19:26:23.838Z,46.37
2019-02-18T19:28:53.383Z,49.33
2019-02-18T19:31:21.846Z,45.10
2019-02-18T19:33:51.404Z,38.60
2019-02-18T19:36:19.977Z,39.73
2019-02-18T19:38:48.437Z,37.80
2019-02-18T19:41:16.905Z,42.97
2019-02-18T19:43:50.328Z,40.57
2019-02-18T19:46:15.582Z,44.30
2019-02-18T19:48:44.035Z,46.37
2019-02-18T19:51:12.546Z,60.23
2019-02-18T19:53:40.997Z,49.23
2019-02-18T19:56:09.460Z,52.37
2019-02-18T19:58:37.991Z,49.23
2019-02-18T20:01:06.514Z,46.67
2019-02-18T20:03:34.981Z,54.43
2019-02-18T20:06:03.657Z,49.97
2019-02-18T20:08:32.143Z,52.43
2019-02-18T20:11:00.602Z,47.77
2019-02-18T20:13:29.078Z,48.40
2019-02-18T20:15:57.544Z,44.80
2019-02-18T20:18:26.013Z,52.20
2019-02-18T20:20:54.693Z,40.77
2019-02-18T20:23:23.176Z,60.73
2019-02-18T20:25:51.648Z,57.63
2019-02-18T20:28:20.144Z,46.17
2019-02-18T20:30:48.869Z,47.37
2019-02-18T20:33:17.332Z,49.60
2019-02-18T20:35:46.308Z,39.80
2019-02-18T20:38:14.796Z,45.77
2019-02-18T20:40:43.271Z,48.53
2019-02-18T20:43:11.776Z,43.50
2019-02-18T20:45:40.302Z,49.50
2019-02-18T20:48:08.784Z,53.10
2019-02-18T20:50:37.280Z,45.80
2019-02-18T20:53:05.757Z,47.23
2019-02-18T20:55:34.310Z,40.17
2019-02-18T20:58:03.960Z,53.10
2019-02-18T21:00:32.576Z,37.63
2019-02-18T21:03:01.070Z,41.73
2019-02-18T21:05:29.598Z,38.77
2019-02-18T21:07:58.080Z,40.60
2019-02-18T21:10:26.577Z,40.53
2019-02-18T21:12:55.109Z,50.33
2019-02-18T21:15:23.599Z,39.03
2019-02-18T21:17:52.084Z,47.07
2019-02-18T21:20:20.605Z,47.33
2019-02-18T21:22:49.461Z,45.70
2019-02-18T21:25:17.941Z,33.17
2019-02-18T21:27:46.459Z,29.90
2019-02-18T21:30:16.961Z,36.13
2019-02-18T21:32:45.658Z,40.07
2019-02-18T21:35:14.234Z,38.07
2019-02-18T21:37:43.003Z,41.67
2019-02-18T21:40:12.152Z,33.67
2019-02-18T21:42:40.683Z,36.87
2019-02-18T21:45:14.012Z,39.40
2019-02-18T21:47:42.498Z,34.73
2019-02-18T21:50:11.663Z,38.10
2019-02-18T21:52:40.416Z,30.33
2019-02-18T21:55:10.526Z,39.57
2019-02-18T21:57:39.077Z,40.20
2019-02-18T22:00:12.365Z,44.50
2019-02-18T22:02:40.844Z,36.17
2019-02-18T22:05:09.433Z,40.13
2019-02-18T22:07:37.916Z,44.37
2019-02-18T22:10:08.455Z,34.57
2019-02-18T22:12:36.961Z,44.23
2019-02-18T22:15:07.574Z,34.67
2019-02-18T22:17:36.057Z,43.60
2019-02-18T22:20:06.339Z,32.57
2019-02-18T22:22:35.090Z,41.87
2019-02-18T22:25:04.244Z,38.07
2019-02-18T22:27:32.783Z,38.33
2019-02-18T22:30:01.253Z,54.57
2019-02-18T22:32:29.734Z,41.73
2019-02-18T22:34:59.607Z,42.17
2019-02-18T22:37:28.087Z,39.27
2019-02-18T22:39:56.575Z,38.80
2019-02-18T22:42:25.109Z,42.67
2019-02-18T22:44:53.598Z,49.70
2019-02-18T22:47:22.546Z,37.87
2019-02-18T22:49:51.146Z,35.37
2019-02-18T22:52:19.650Z,43.73
2019-02-18T22:54:48.513Z,35.00
2019-02-18T22:57:17.039Z,38.80
2019-02-18T22:59:45.523Z,34.33
2019-02-18T23:02:14.063Z,46.37
2019-02-18T23:04:43.455Z,44.10
2019-02-18T23:07:11.944Z,42.23
2019-02-18T23:09:40.439Z,37.97
2019-02-18T23:12:09.241Z,44.43
2019-02-18T23:14:37.726Z,31.60
2019-02-18T23:17:06.217Z,35.10
2019-02-18T23:19:34.720Z,37.87
2019-02-18T23:22:03.205Z,35.20
2019-02-18T23:24:31.704Z,38.53
2019-02-18T23:27:00.230Z,39.17
2019-02-18T23:29:29.194Z,44.30
2019-02-18T23:31:57.674Z,47.80
2019-02-18T23:34:26.208Z,38.93
2019-02-18T23:36:55.130Z,41.17
2019-02-18T23:39:23.616Z,43.07
2019-02-18T23:41:52.124Z,41.03
2019-02-18T23:44:20.599Z,41.60
2019-02-18T23:46:49.079Z,35.30
2019-02-18T23:49:17.602Z,38.40
2019-02-18T23:51:46.086Z,39.77
2019-02-18T23:54:14.556Z,41.77
2019-02-18T23:56:43.071Z,38.07
2019-02-18T23:59:11.559Z,40.77
